sensor_id;sensor_type;location;lat;lon;timestamp;P1;durP1;ratioP1;P2;durP2;ratioP2
70588;SDS011;58152;49.202;18.744;2023-06-26T00:00:26;4.38;;;3.95;;
70588;SDS011;58152;49.202;18.744;2023-06-26T00:02:51;4.20;;;3.55;;
70588;SDS011;58152;49.202;18.744;2023-06-26T00:05:16;5.80;;;3.85;;
70588;SDS011;58152;49.202;18.744;2023-06-26T00:07:42;4.15;;;3.60;;
70588;SDS011;58152;49.202;18.744;2023-06-26T00:10:07;3.63;;;3.33;;
70588;SDS011;58152;49.202;18.744;2023-06-26T00:12:33;3.35;;;3.05;;
70588;SDS011;58152;49.202;18.744;2023-06-26T00:14:59;4.65;;;3.30;;
70588;SDS011;58152;49.202;18.744;2023-06-26T00:17:24;4.00;;;3.60;;
70588;SDS011;58152;49.202;18.744;2023-06-26T00:19:50;5.05;;;3.22;;
70588;SDS011;58152;49.202;18.744;2023-06-26T00:22:21;3.72;;;3.33;;
70588;SDS011;58152;49.202;18.744;2023-06-26T00:24:49;5.03;;;3.70;;
70588;SDS011;58152;49.202;18.744;2023-06-26T00:27:15;4.18;;;3.78;;
70588;SDS011;58152;49.202;18.744;2023-06-26T00:29:40;4.10;;;3.50;;
70588;SDS011;58152;49.202;18.744;2023-06-26T00:32:06;3.95;;;3.45;;
70588;SDS011;58152;49.202;18.744;2023-06-26T00:34:31;4.10;;;3.63;;
70588;SDS011;58152;49.202;18.744;2023-06-26T00:36:57;5.40;;;3.60;;
70588;SDS011;58152;49.202;18.744;2023-06-26T00:39:22;4.57;;;3.78;;
70588;SDS011;58152;49.202;18.744;2023-06-26T00:41:50;3.53;;;3.08;;
70588;SDS011;58152;49.202;18.744;2023-06-26T00:44:18;4.32;;;3.75;;
70588;SDS011;58152;49.202;18.744;2023-06-26T00:46:44;4.50;;;3.95;;
70588;SDS011;58152;49.202;18.744;2023-06-26T00:49:09;4.43;;;4.00;;
70588;SDS011;58152;49.202;18.744;2023-06-26T00:51:35;4.50;;;3.50;;
70588;SDS011;58152;49.202;18.744;2023-06-26T00:54:00;4.38;;;3.88;;
70588;SDS011;58152;49.202;18.744;2023-06-26T00:56:27;4.38;;;3.97;;
70588;SDS011;58152;49.202;18.744;2023-06-26T00:58:53;4.13;;;3.55;;
70588;SDS011;58152;49.202;18.744;2023-06-26T01:01:19;5.45;;;3.60;;
70588;SDS011;58152;49.202;18.744;2023-06-26T01:03:48;4.35;;;3.85;;
70588;SDS011;58152;49.202;18.744;2023-06-26T01:06:18;4.60;;;3.63;;
70588;SDS011;58152;49.202;18.744;2023-06-26T01:08:46;4.65;;;3.58;;
70588;SDS011;58152;49.202;18.744;2023-06-26T01:11:13;4.13;;;3.72;;
70588;SDS011;58152;49.202;18.744;2023-06-26T01:13:40;4.68;;;3.80;;
70588;SDS011;58152;49.202;18.744;2023-06-26T01:16:07;4.65;;;3.60;;
70588;SDS011;58152;49.202;18.744;2023-06-26T01:18:34;5.45;;;4.30;;
70588;SDS011;58152;49.202;18.744;2023-06-26T01:21:04;5.30;;;4.10;;
70588;SDS011;58152;49.202;18.744;2023-06-26T01:23:31;5.25;;;4.03;;
70588;SDS011;58152;49.202;18.744;2023-06-26T01:28:33;3.95;;;3.55;;
70588;SDS011;58152;49.202;18.744;2023-06-26T01:31:01;4.70;;;3.35;;
70588;SDS011;58152;49.202;18.744;2023-06-26T01:33:27;4.38;;;3.90;;
70588;SDS011;58152;49.202;18.744;2023-06-26T01:35:54;5.82;;;4.13;;
70588;SDS011;58152;49.202;18.744;2023-06-26T01:38:20;4.28;;;3.65;;
70588;SDS011;58152;49.202;18.744;2023-06-26T01:40:48;4.65;;;4.03;;
70588;SDS011;58152;49.202;18.744;2023-06-26T01:43:24;4.13;;;3.38;;
70588;SDS011;58152;49.202;18.744;2023-06-26T01:46:11;9.05;;;4.13;;
70588;SDS011;58152;49.202;18.744;2023-06-26T01:48:55;6.75;;;3.80;;
70588;SDS011;58152;49.202;18.744;2023-06-26T01:51:28;4.78;;;3.63;;
70588;SDS011;58152;49.202;18.744;2023-06-26T01:53:56;4.25;;;3.50;;
70588;SDS011;58152;49.202;18.744;2023-06-26T01:56:24;4.03;;;3.63;;
70588;SDS011;58152;49.202;18.744;2023-06-26T01:58:50;4.38;;;3.45;;
70588;SDS011;58152;49.202;18.744;2023-06-26T02:01:19;4.15;;;3.63;;
70588;SDS011;58152;49.202;18.744;2023-06-26T02:03:45;4.60;;;4.00;;
70588;SDS011;58152;49.202;18.744;2023-06-26T02:06:12;4.05;;;3.65;;
70588;SDS011;58152;49.202;18.744;2023-06-26T02:08:38;4.57;;;3.67;;
70588;SDS011;58152;49.202;18.744;2023-06-26T02:11:03;4.18;;;3.50;;
70588;SDS011;58152;49.202;18.744;2023-06-26T02:13:28;4.82;;;3.75;;
70588;SDS011;58152;49.202;18.744;2023-06-26T02:15:54;4.43;;;3.75;;
70588;SDS011;58152;49.202;18.744;2023-06-26T02:18:19;4.45;;;3.25;;
70588;SDS011;58152;49.202;18.744;2023-06-26T02:20:47;4.25;;;3.80;;
70588;SDS011;58152;49.202;18.744;2023-06-26T02:23:17;5.95;;;3.90;;
70588;SDS011;58152;49.202;18.744;2023-06-26T02:25:43;5.38;;;3.75;;
70588;SDS011;58152;49.202;18.744;2023-06-26T02:28:08;4.13;;;3.13;;
70588;SDS011;58152;49.202;18.744;2023-06-26T02:30:34;5.47;;;3.90;;
70588;SDS011;58152;49.202;18.744;2023-06-26T02:33:01;4.47;;;3.33;;
70588;SDS011;58152;49.202;18.744;2023-06-26T02:35:26;4.00;;;3.50;;
70588;SDS011;58152;49.202;18.744;2023-06-26T02:37:53;3.42;;;3.08;;
70588;SDS011;58152;49.202;18.744;2023-06-26T02:40:20;4.43;;;3.65;;
70588;SDS011;58152;49.202;18.744;2023-06-26T02:42:48;4.53;;;3.70;;
70588;SDS011;58152;49.202;18.744;2023-06-26T02:45:13;4.18;;;3.05;;
70588;SDS011;58152;49.202;18.744;2023-06-26T02:47:39;4.95;;;4.43;;
70588;SDS011;58152;49.202;18.744;2023-06-26T02:50:07;4.70;;;4.28;;
70588;SDS011;58152;49.202;18.744;2023-06-26T02:52:33;4.20;;;3.80;;
70588;SDS011;58152;49.202;18.744;2023-06-26T02:54:58;4.00;;;3.60;;
70588;SDS011;58152;49.202;18.744;2023-06-26T02:57:23;4.50;;;3.25;;
70588;SDS011;58152;49.202;18.744;2023-06-26T02:59:49;4.25;;;3.67;;
70588;SDS011;58152;49.202;18.744;2023-06-26T03:02:16;3.92;;;3.47;;
70588;SDS011;58152;49.202;18.744;2023-06-26T03:04:41;4.15;;;3.75;;
70588;SDS011;58152;49.202;18.744;2023-06-26T03:07:08;6.45;;;3.83;;
70588;SDS011;58152;49.202;18.744;2023-06-26T03:09:34;4.22;;;3.10;;
70588;SDS011;58152;49.202;18.744;2023-06-26T03:11:59;4.68;;;4.28;;
70588;SDS011;58152;49.202;18.744;2023-06-26T03:14:25;4.03;;;3.63;;
70588;SDS011;58152;49.202;18.744;2023-06-26T03:16:55;5.95;;;3.50;;
70588;SDS011;58152;49.202;18.744;2023-06-26T03:19:23;4.07;;;3.65;;
70588;SDS011;58152;49.202;18.744;2023-06-26T03:21:48;4.85;;;3.60;;
70588;SDS011;58152;49.202;18.744;2023-06-26T03:24:14;7.88;;;4.10;;
70588;SDS011;58152;49.202;18.744;2023-06-26T03:26:39;4.38;;;3.88;;
70588;SDS011;58152;49.202;18.744;2023-06-26T03:29:05;4.43;;;3.40;;
70588;SDS011;58152;49.202;18.744;2023-06-26T03:31:34;8.13;;;6.45;;
70588;SDS011;58152;49.202;18.744;2023-06-26T03:34:09;7.35;;;5.78;;
70588;SDS011;58152;49.202;18.744;2023-06-26T03:36:48;6.03;;;5.43;;
70588;SDS011;58152;49.202;18.744;2023-06-26T03:39:14;5.25;;;4.00;;
70588;SDS011;58152;49.202;18.744;2023-06-26T03:41:43;5.13;;;4.00;;
70588;SDS011;58152;49.202;18.744;2023-06-26T03:44:11;5.57;;;3.83;;
70588;SDS011;58152;49.202;18.744;2023-06-26T03:46:37;15.10;;;6.40;;
70588;SDS011;58152;49.202;18.744;2023-06-26T03:49:02;14.15;;;6.03;;
70588;SDS011;58152;49.202;18.744;2023-06-26T03:51:31;13.32;;;6.03;;
70588;SDS011;58152;49.202;18.744;2023-06-26T03:53:56;14.75;;;6.03;;
70588;SDS011;58152;49.202;18.744;2023-06-26T03:56:24;13.40;;;5.78;;
70588;SDS011;58152;49.202;18.744;2023-06-26T03:58:57;9.77;;;5.25;;
70588;SDS011;58152;49.202;18.744;2023-06-26T04:01:28;6.55;;;4.13;;
70588;SDS011;58152;49.202;18.744;2023-06-26T04:03:54;7.88;;;4.25;;
70588;SDS011;58152;49.202;18.744;2023-06-26T04:06:19;6.82;;;4.25;;
70588;SDS011;58152;49.202;18.744;2023-06-26T04:08:45;5.03;;;3.92;;
70588;SDS011;58152;49.202;18.744;2023-06-26T04:11:10;9.55;;;4.40;;
70588;SDS011;58152;49.202;18.744;2023-06-26T04:13:41;6.88;;;3.95;;
70588;SDS011;58152;49.202;18.744;2023-06-26T04:18:38;8.15;;;4.00;;
70588;SDS011;58152;49.202;18.744;2023-06-26T04:21:12;6.30;;;4.13;;
70588;SDS011;58152;49.202;18.744;2023-06-26T04:23:50;7.07;;;4.35;;
70588;SDS011;58152;49.202;18.744;2023-06-26T04:26:16;4.22;;;3.83;;
70588;SDS011;58152;49.202;18.744;2023-06-26T04:28:42;5.82;;;4.38;;
70588;SDS011;58152;49.202;18.744;2023-06-26T04:31:08;5.95;;;4.15;;
70588;SDS011;58152;49.202;18.744;2023-06-26T04:33:37;5.43;;;4.10;;
70588;SDS011;58152;49.202;18.744;2023-06-26T04:36:03;4.90;;;4.30;;
70588;SDS011;58152;49.202;18.744;2023-06-26T04:38:30;6.45;;;4.50;;
70588;SDS011;58152;49.202;18.744;2023-06-26T04:41:00;5.85;;;4.38;;
70588;SDS011;58152;49.202;18.744;2023-06-26T04:43:26;7.63;;;5.43;;
70588;SDS011;58152;49.202;18.744;2023-06-26T04:45:52;6.88;;;4.53;;
70588;SDS011;58152;49.202;18.744;2023-06-26T04:48:18;5.72;;;4.32;;
70588;SDS011;58152;49.202;18.744;2023-06-26T04:50:47;4.45;;;3.80;;
70588;SDS011;58152;49.202;18.744;2023-06-26T04:53:18;4.60;;;3.90;;
70588;SDS011;58152;49.202;18.744;2023-06-26T04:55:56;6.20;;;4.68;;
70588;SDS011;58152;49.202;18.744;2023-06-26T04:58:36;4.63;;;3.58;;
70588;SDS011;58152;49.202;18.744;2023-06-26T05:01:02;5.47;;;4.00;;
70588;SDS011;58152;49.202;18.744;2023-06-26T05:03:30;5.13;;;4.63;;
70588;SDS011;58152;49.202;18.744;2023-06-26T05:05:56;6.50;;;4.80;;
70588;SDS011;58152;49.202;18.744;2023-06-26T05:08:23;6.03;;;4.47;;
70588;SDS011;58152;49.202;18.744;2023-06-26T05:10:51;5.45;;;4.10;;
70588;SDS011;58152;49.202;18.744;2023-06-26T05:13:24;5.72;;;4.32;;
70588;SDS011;58152;49.202;18.744;2023-06-26T05:15:51;6.70;;;5.22;;
70588;SDS011;58152;49.202;18.744;2023-06-26T05:18:18;4.68;;;4.20;;
70588;SDS011;58152;49.202;18.744;2023-06-26T05:20:44;7.68;;;4.65;;
70588;SDS011;58152;49.202;18.744;2023-06-26T05:23:10;6.47;;;4.70;;
70588;SDS011;58152;49.202;18.744;2023-06-26T05:25:37;5.45;;;4.45;;
70588;SDS011;58152;49.202;18.744;2023-06-26T05:28:12;5.20;;;4.13;;
70588;SDS011;58152;49.202;18.744;2023-06-26T05:33:34;5.25;;;4.20;;
70588;SDS011;58152;49.202;18.744;2023-06-26T05:36:04;7.78;;;4.10;;
70588;SDS011;58152;49.202;18.744;2023-06-26T05:38:49;5.43;;;4.72;;
70588;SDS011;58152;49.202;18.744;2023-06-26T05:41:26;4.65;;;4.22;;
70588;SDS011;58152;49.202;18.744;2023-06-26T05:43:52;5.07;;;4.03;;
70588;SDS011;58152;49.202;18.744;2023-06-26T05:46:21;6.53;;;4.57;;
70588;SDS011;58152;49.202;18.744;2023-06-26T05:48:48;5.90;;;4.25;;
70588;SDS011;58152;49.202;18.744;2023-06-26T05:51:16;6.45;;;5.03;;
70588;SDS011;58152;49.202;18.744;2023-06-26T05:53:41;5.20;;;4.45;;
70588;SDS011;58152;49.202;18.744;2023-06-26T05:56:15;5.72;;;4.25;;
70588;SDS011;58152;49.202;18.744;2023-06-26T05:58:40;5.25;;;3.95;;
70588;SDS011;58152;49.202;18.744;2023-06-26T06:01:07;5.68;;;4.68;;
70588;SDS011;58152;49.202;18.744;2023-06-26T06:03:38;7.80;;;4.80;;
70588;SDS011;58152;49.202;18.744;2023-06-26T06:06:10;5.60;;;4.95;;
70588;SDS011;58152;49.202;18.744;2023-06-26T06:08:38;6.88;;;4.85;;
70588;SDS011;58152;49.202;18.744;2023-06-26T06:11:10;5.60;;;4.65;;
70588;SDS011;58152;49.202;18.744;2023-06-26T06:13:38;5.95;;;4.88;;
70588;SDS011;58152;49.202;18.744;2023-06-26T06:16:07;6.30;;;4.60;;
70588;SDS011;58152;49.202;18.744;2023-06-26T06:22:38;4.57;;;4.15;;
70588;SDS011;58152;49.202;18.744;2023-06-26T06:28:25;4.07;;;3.67;;
70588;SDS011;58152;49.202;18.744;2023-06-26T06:30:51;5.65;;;4.45;;
70588;SDS011;58152;49.202;18.744;2023-06-26T06:33:17;5.75;;;4.55;;
70588;SDS011;58152;49.202;18.744;2023-06-26T06:39:12;4.82;;;3.63;;
70588;SDS011;58152;49.202;18.744;2023-06-26T06:58:20;4.28;;;3.67;;
70588;SDS011;58152;49.202;18.744;2023-06-26T07:33:28;4.23;;;3.27;;
70588;SDS011;58152;49.202;18.744;2023-06-26T07:39:00;4.03;;;2.80;;
70588;SDS011;58152;49.202;18.744;2023-06-26T07:41:35;3.45;;;3.00;;
70588;SDS011;58152;49.202;18.744;2023-06-26T07:44:15;5.13;;;3.28;;
70588;SDS011;58152;49.202;18.744;2023-06-26T08:08:25;3.45;;;2.80;;
70588;SDS011;58152;49.202;18.744;2023-06-26T08:27:24;2.42;;;2.20;;
70588;SDS011;58152;49.202;18.744;2023-06-26T08:40:16;3.33;;;2.72;;
70588;SDS011;58152;49.202;18.744;2023-06-26T08:43:29;2.60;;;2.40;;
70588;SDS011;58152;49.202;18.744;2023-06-26T08:46:25;2.45;;;2.25;;
70588;SDS011;58152;49.202;18.744;2023-06-26T08:52:33;3.50;;;2.28;;
70588;SDS011;58152;49.202;18.744;2023-06-26T08:55:45;2.95;;;2.50;;
70588;SDS011;58152;49.202;18.744;2023-06-26T08:58:37;3.20;;;2.33;;
70588;SDS011;58152;49.202;18.744;2023-06-26T09:01:17;3.25;;;2.50;;
70588;SDS011;58152;49.202;18.744;2023-06-26T09:03:44;2.85;;;2.50;;
70588;SDS011;58152;49.202;18.744;2023-06-26T09:06:15;2.45;;;2.25;;
70588;SDS011;58152;49.202;18.744;2023-06-26T09:08:43;2.58;;;2.28;;
70588;SDS011;58152;49.202;18.744;2023-06-26T09:11:24;3.50;;;2.47;;
70588;SDS011;58152;49.202;18.744;2023-06-26T09:13:56;2.92;;;2.63;;
70588;SDS011;58152;49.202;18.744;2023-06-26T09:20:08;3.45;;;2.60;;
70588;SDS011;58152;49.202;18.744;2023-06-26T09:26:08;2.95;;;2.63;;
70588;SDS011;58152;49.202;18.744;2023-06-26T09:32:14;3.13;;;2.83;;
70588;SDS011;58152;49.202;18.744;2023-06-26T09:49:22;4.45;;;2.78;;
70588;SDS011;58152;49.202;18.744;2023-06-26T10:08:06;2.43;;;1.93;;
70588;SDS011;58152;49.202;18.744;2023-06-26T10:11:02;2.75;;;2.45;;
70588;SDS011;58152;49.202;18.744;2023-06-26T10:13:30;2.50;;;2.15;;
70588;SDS011;58152;49.202;18.744;2023-06-26T10:16:06;2.65;;;2.33;;
70588;SDS011;58152;49.202;18.744;2023-06-26T10:18:36;3.72;;;2.30;;
70588;SDS011;58152;49.202;18.744;2023-06-26T10:21:35;13.77;;;12.43;;
70588;SDS011;58152;49.202;18.744;2023-06-26T11:47:05;2.95;;;2.13;;
70588;SDS011;58152;49.202;18.744;2023-06-26T11:49:31;45.35;;;38.35;;
70588;SDS011;58152;49.202;18.744;2023-06-26T11:51:56;50.15;;;44.70;;
70588;SDS011;58152;49.202;18.744;2023-06-26T11:54:25;15.98;;;14.32;;
70588;SDS011;58152;49.202;18.744;2023-06-26T11:56:55;5.60;;;5.10;;
70588;SDS011;58152;49.202;18.744;2023-06-26T11:59:24;3.10;;;2.80;;
70588;SDS011;58152;49.202;18.744;2023-06-26T12:01:58;3.45;;;2.53;;
70588;SDS011;58152;49.202;18.744;2023-06-26T12:12:42;2.88;;;2.53;;
70588;SDS011;58152;49.202;18.744;2023-06-26T12:15:13;2.35;;;2.15;;
70588;SDS011;58152;49.202;18.744;2023-06-26T12:17:42;2.53;;;2.33;;
70588;SDS011;58152;49.202;18.744;2023-06-26T12:20:21;2.90;;;2.60;;
70588;SDS011;58152;49.202;18.744;2023-06-26T12:23:11;3.85;;;2.88;;
70588;SDS011;58152;49.202;18.744;2023-06-26T12:25:47;2.92;;;2.60;;
70588;SDS011;58152;49.202;18.744;2023-06-26T12:53:45;4.40;;;2.47;;
70588;SDS011;58152;49.202;18.744;2023-06-26T12:56:10;2.50;;;2.30;;
70588;SDS011;58152;49.202;18.744;2023-06-26T12:58:37;3.33;;;2.55;;
70588;SDS011;58152;49.202;18.744;2023-06-26T13:01:03;3.30;;;2.25;;
70588;SDS011;58152;49.202;18.744;2023-06-26T13:03:30;3.35;;;2.90;;
70588;SDS011;58152;49.202;18.744;2023-06-26T13:05:56;3.15;;;2.80;;
70588;SDS011;58152;49.202;18.744;2023-06-26T13:08:22;3.13;;;2.75;;
70588;SDS011;58152;49.202;18.744;2023-06-26T13:10:47;3.00;;;2.13;;
70588;SDS011;58152;49.202;18.744;2023-06-26T13:13:13;2.17;;;1.98;;
70588;SDS011;58152;49.202;18.744;2023-06-26T13:15:38;3.45;;;2.63;;
70588;SDS011;58152;49.202;18.744;2023-06-26T13:18:04;2.67;;;2.25;;
70588;SDS011;58152;49.202;18.744;2023-06-26T13:20:29;66.72;;;59.90;;
70588;SDS011;58152;49.202;18.744;2023-06-26T13:22:55;69.13;;;61.95;;
70588;SDS011;58152;49.202;18.744;2023-06-26T13:25:21;31.80;;;28.52;;
70588;SDS011;58152;49.202;18.744;2023-06-26T13:55:58;2.92;;;2.72;;
70588;SDS011;58152;49.202;18.744;2023-06-26T14:18:14;2.50;;;2.30;;
70588;SDS011;58152;49.202;18.744;2023-06-26T14:20:51;2.60;;;2.22;;
70588;SDS011;58152;49.202;18.744;2023-06-26T14:24:01;2.63;;;2.42;;
70588;SDS011;58152;49.202;18.744;2023-06-26T14:29:40;2.50;;;2.30;;
70588;SDS011;58152;49.202;18.744;2023-06-26T14:32:10;2.38;;;2.17;;
70588;SDS011;58152;49.202;18.744;2023-06-26T14:37:44;23.77;;;21.55;;
70588;SDS011;58152;49.202;18.744;2023-06-26T14:40:10;69.55;;;62.40;;
70588;SDS011;58152;49.202;18.744;2023-06-26T14:42:36;29.02;;;26.25;;
70588;SDS011;58152;49.202;18.744;2023-06-26T14:45:02;8.05;;;7.35;;
70588;SDS011;58152;49.202;18.744;2023-06-26T14:47:28;3.83;;;3.53;;
70588;SDS011;58152;49.202;18.744;2023-06-26T14:49:53;3.40;;;2.60;;
70588;SDS011;58152;49.202;18.744;2023-06-26T14:52:19;2.30;;;2.10;;
70588;SDS011;58152;49.202;18.744;2023-06-26T14:54:44;3.10;;;2.38;;
70588;SDS011;58152;49.202;18.744;2023-06-26T14:57:09;2.33;;;2.13;;
70588;SDS011;58152;49.202;18.744;2023-06-26T14:59:35;2.42;;;2.20;;
70588;SDS011;58152;49.202;18.744;2023-06-26T15:02:01;2.40;;;2.20;;
70588;SDS011;58152;49.202;18.744;2023-06-26T15:04:27;2.80;;;2.20;;
70588;SDS011;58152;49.202;18.744;2023-06-26T15:06:52;2.78;;;2.45;;
70588;SDS011;58152;49.202;18.744;2023-06-26T15:09:18;2.28;;;2.05;;
70588;SDS011;58152;49.202;18.744;2023-06-26T15:11:43;2.78;;;2.55;;
70588;SDS011;58152;49.202;18.744;2023-06-26T15:14:09;2.60;;;2.20;;
70588;SDS011;58152;49.202;18.744;2023-06-26T15:16:34;2.85;;;2.00;;
70588;SDS011;58152;49.202;18.744;2023-06-26T15:19:00;5.55;;;3.20;;
70588;SDS011;58152;49.202;18.744;2023-06-26T15:21:26;2.65;;;2.45;;
70588;SDS011;58152;49.202;18.744;2023-06-26T15:23:51;2.00;;;1.85;;
70588;SDS011;58152;49.202;18.744;2023-06-26T15:26:17;2.30;;;2.10;;
70588;SDS011;58152;49.202;18.744;2023-06-26T15:28:42;2.78;;;2.40;;
70588;SDS011;58152;49.202;18.744;2023-06-26T15:51:21;2.22;;;2.03;;
70588;SDS011;58152;49.202;18.744;2023-06-26T15:56:47;3.03;;;2.38;;
70588;SDS011;58152;49.202;18.744;2023-06-26T15:59:12;2.70;;;2.15;;
70588;SDS011;58152;49.202;18.744;2023-06-26T16:01:40;3.63;;;2.33;;
70588;SDS011;58152;49.202;18.744;2023-06-26T16:04:08;3.40;;;3.10;;
70588;SDS011;58152;49.202;18.744;2023-06-26T16:06:34;6.65;;;6.07;;
70588;SDS011;58152;49.202;18.744;2023-06-26T16:09:00;3.55;;;3.25;;
70588;SDS011;58152;49.202;18.744;2023-06-26T16:11:25;3.30;;;2.85;;
70588;SDS011;58152;49.202;18.744;2023-06-26T16:13:50;2.88;;;2.42;;
70588;SDS011;58152;49.202;18.744;2023-06-26T16:16:17;2.90;;;2.65;;
70588;SDS011;58152;49.202;18.744;2023-06-26T16:18:42;2.78;;;2.58;;
70588;SDS011;58152;49.202;18.744;2023-06-26T16:21:08;4.75;;;2.50;;
70588;SDS011;58152;49.202;18.744;2023-06-26T16:23:44;2.58;;;2.38;;
70588;SDS011;58152;49.202;18.744;2023-06-26T16:26:24;3.35;;;3.05;;
70588;SDS011;58152;49.202;18.744;2023-06-26T16:28:49;2.55;;;2.35;;
70588;SDS011;58152;49.202;18.744;2023-06-26T16:31:15;2.00;;;1.88;;
70588;SDS011;58152;49.202;18.744;2023-06-26T16:33:41;2.92;;;2.67;;
70588;SDS011;58152;49.202;18.744;2023-06-26T16:36:07;2.80;;;2.40;;
70588;SDS011;58152;49.202;18.744;2023-06-26T16:38:32;3.10;;;2.90;;
70588;SDS011;58152;49.202;18.744;2023-06-26T16:40:57;2.58;;;2.38;;
70588;SDS011;58152;49.202;18.744;2023-06-26T16:43:23;3.92;;;2.40;;
70588;SDS011;58152;49.202;18.744;2023-06-26T16:45:48;2.58;;;2.38;;
70588;SDS011;58152;49.202;18.744;2023-06-26T16:48:14;2.50;;;2.17;;
70588;SDS011;58152;49.202;18.744;2023-06-26T16:50:39;2.80;;;2.60;;
70588;SDS011;58152;49.202;18.744;2023-06-26T16:53:05;3.00;;;2.05;;
70588;SDS011;58152;49.202;18.744;2023-06-26T16:55:30;2.67;;;2.47;;
70588;SDS011;58152;49.202;18.744;2023-06-26T16:57:56;2.80;;;2.55;;
70588;SDS011;58152;49.202;18.744;2023-06-26T17:00:21;3.17;;;2.88;;
70588;SDS011;58152;49.202;18.744;2023-06-26T17:02:51;3.10;;;2.80;;
70588;SDS011;58152;49.202;18.744;2023-06-26T17:05:19;3.03;;;2.70;;
70588;SDS011;58152;49.202;18.744;2023-06-26T17:07:45;3.75;;;3.45;;
70588;SDS011;58152;49.202;18.744;2023-06-26T17:10:15;3.35;;;3.05;;
70588;SDS011;58152;49.202;18.744;2023-06-26T17:12:41;3.58;;;3.28;;
70588;SDS011;58152;49.202;18.744;2023-06-26T17:15:07;4.20;;;3.90;;
70588;SDS011;58152;49.202;18.744;2023-06-26T17:17:33;3.30;;;3.00;;
70588;SDS011;58152;49.202;18.744;2023-06-26T17:20:05;3.33;;;3.03;;
70588;SDS011;58152;49.202;18.744;2023-06-26T17:22:37;2.80;;;2.60;;
70588;SDS011;58152;49.202;18.744;2023-06-26T17:25:03;4.15;;;2.45;;
70588;SDS011;58152;49.202;18.744;2023-06-26T17:27:42;2.92;;;2.67;;
70588;SDS011;58152;49.202;18.744;2023-06-26T17:30:09;3.20;;;2.90;;
70588;SDS011;58152;49.202;18.744;2023-06-26T17:32:41;2.60;;;2.22;;
70588;SDS011;58152;49.202;18.744;2023-06-26T17:35:12;3.78;;;3.00;;
70588;SDS011;58152;49.202;18.744;2023-06-26T17:37:37;3.72;;;2.70;;
70588;SDS011;58152;49.202;18.744;2023-06-26T17:40:09;2.78;;;2.58;;
70588;SDS011;58152;49.202;18.744;2023-06-26T17:42:37;3.40;;;2.15;;
70588;SDS011;58152;49.202;18.744;2023-06-26T17:45:10;2.90;;;2.60;;
70588;SDS011;58152;49.202;18.744;2023-06-26T17:47:44;2.97;;;2.60;;
70588;SDS011;58152;49.202;18.744;2023-06-26T17:50:15;3.28;;;2.97;;
70588;SDS011;58152;49.202;18.744;2023-06-26T17:52:55;3.28;;;2.97;;
70588;SDS011;58152;49.202;18.744;2023-06-26T17:55:28;3.97;;;2.90;;
70588;SDS011;58152;49.202;18.744;2023-06-26T17:57:53;3.15;;;2.80;;
70588;SDS011;58152;49.202;18.744;2023-06-26T18:00:22;2.97;;;2.67;;
70588;SDS011;58152;49.202;18.744;2023-06-26T18:02:56;3.40;;;3.10;;
70588;SDS011;58152;49.202;18.744;2023-06-26T18:05:28;2.75;;;2.55;;
70588;SDS011;58152;49.202;18.744;2023-06-26T18:08:05;4.00;;;3.00;;
70588;SDS011;58152;49.202;18.744;2023-06-26T18:10:35;5.20;;;3.17;;
70588;SDS011;58152;49.202;18.744;2023-06-26T18:13:21;3.80;;;2.78;;
70588;SDS011;58152;49.202;18.744;2023-06-26T18:15:52;3.00;;;2.70;;
70588;SDS011;58152;49.202;18.744;2023-06-26T18:18:27;3.63;;;2.95;;
70588;SDS011;58152;49.202;18.744;2023-06-26T18:27:32;3.10;;;2.80;;
70588;SDS011;58152;49.202;18.744;2023-06-26T18:33:14;3.03;;;2.72;;
70588;SDS011;58152;49.202;18.744;2023-06-26T18:35:55;3.22;;;2.92;;
70588;SDS011;58152;49.202;18.744;2023-06-26T18:41:29;3.25;;;2.95;;
70588;SDS011;58152;49.202;18.744;2023-06-26T18:43:56;4.00;;;3.42;;
70588;SDS011;58152;49.202;18.744;2023-06-26T18:46:21;3.47;;;3.05;;
70588;SDS011;58152;49.202;18.744;2023-06-26T18:48:59;3.97;;;3.33;;
70588;SDS011;58152;49.202;18.744;2023-06-26T18:51:26;4.13;;;3.05;;
70588;SDS011;58152;49.202;18.744;2023-06-26T18:56:54;3.20;;;2.88;;
70588;SDS011;58152;49.202;18.744;2023-06-26T18:59:25;3.25;;;2.95;;
70588;SDS011;58152;49.202;18.744;2023-06-26T19:02:09;3.63;;;3.00;;
70588;SDS011;58152;49.202;18.744;2023-06-26T19:05:12;5.40;;;3.03;;
70588;SDS011;58152;49.202;18.744;2023-06-26T19:07:39;3.78;;;3.40;;
70588;SDS011;58152;49.202;18.744;2023-06-26T19:10:33;4.50;;;3.08;;
70588;SDS011;58152;49.202;18.744;2023-06-26T19:13:00;3.95;;;3.60;;
70588;SDS011;58152;49.202;18.744;2023-06-26T19:15:43;3.55;;;3.17;;
70588;SDS011;58152;49.202;18.744;2023-06-26T19:18:12;4.70;;;4.30;;
70588;SDS011;58152;49.202;18.744;2023-06-26T19:20:41;5.05;;;4.55;;
70588;SDS011;58152;49.202;18.744;2023-06-26T19:23:07;4.20;;;3.80;;
70588;SDS011;58152;49.202;18.744;2023-06-26T19:25:35;3.40;;;3.10;;
70588;SDS011;58152;49.202;18.744;2023-06-26T19:28:00;5.20;;;3.50;;
70588;SDS011;58152;49.202;18.744;2023-06-26T19:30:26;3.20;;;2.90;;
70588;SDS011;58152;49.202;18.744;2023-06-26T19:32:51;4.30;;;3.47;;
70588;SDS011;58152;49.202;18.744;2023-06-26T19:35:17;4.57;;;3.65;;
70588;SDS011;58152;49.202;18.744;2023-06-26T19:37:42;5.05;;;2.97;;
70588;SDS011;58152;49.202;18.744;2023-06-26T19:40:15;3.35;;;2.95;;
70588;SDS011;58152;49.202;18.744;2023-06-26T19:42:54;3.33;;;3.00;;
70588;SDS011;58152;49.202;18.744;2023-06-26T19:45:27;3.97;;;3.58;;
70588;SDS011;58152;49.202;18.744;2023-06-26T19:48:02;3.90;;;3.50;;
70588;SDS011;58152;49.202;18.744;2023-06-26T19:50:41;3.90;;;3.50;;
70588;SDS011;58152;49.202;18.744;2023-06-26T19:53:27;4.25;;;3.63;;
70588;SDS011;58152;49.202;18.744;2023-06-26T19:56:13;5.10;;;3.47;;
70588;SDS011;58152;49.202;18.744;2023-06-26T19:58:41;4.07;;;3.00;;
70588;SDS011;58152;49.202;18.744;2023-06-26T20:01:12;6.63;;;3.85;;
70588;SDS011;58152;49.202;18.744;2023-06-26T20:04:02;4.57;;;3.70;;
70588;SDS011;58152;49.202;18.744;2023-06-26T20:06:29;4.03;;;3.55;;
70588;SDS011;58152;49.202;18.744;2023-06-26T20:09:00;4.97;;;4.35;;
70588;SDS011;58152;49.202;18.744;2023-06-26T20:11:26;3.78;;;3.47;;
70588;SDS011;58152;49.202;18.744;2023-06-26T20:13:51;5.63;;;3.35;;
70588;SDS011;58152;49.202;18.744;2023-06-26T20:16:17;4.63;;;3.67;;
70588;SDS011;58152;49.202;18.744;2023-06-26T20:18:42;4.10;;;3.67;;
70588;SDS011;58152;49.202;18.744;2023-06-26T20:21:08;5.97;;;3.38;;
70588;SDS011;58152;49.202;18.744;2023-06-26T20:23:33;8.40;;;7.50;;
70588;SDS011;58152;49.202;18.744;2023-06-26T20:25:59;10.38;;;8.23;;
70588;SDS011;58152;49.202;18.744;2023-06-26T20:28:24;6.22;;;5.20;;
70588;SDS011;58152;49.202;18.744;2023-06-26T20:30:50;4.40;;;4.00;;
70588;SDS011;58152;49.202;18.744;2023-06-26T20:33:15;4.53;;;3.65;;
70588;SDS011;58152;49.202;18.744;2023-06-26T20:35:40;4.85;;;4.32;;
70588;SDS011;58152;49.202;18.744;2023-06-26T20:38:06;4.40;;;4.00;;
70588;SDS011;58152;49.202;18.744;2023-06-26T20:40:31;4.60;;;4.20;;
70588;SDS011;58152;49.202;18.744;2023-06-26T20:42:57;4.85;;;3.97;;
70588;SDS011;58152;49.202;18.744;2023-06-26T20:45:23;6.25;;;5.65;;
70588;SDS011;58152;49.202;18.744;2023-06-26T20:47:50;7.00;;;6.18;;
70588;SDS011;58152;49.202;18.744;2023-06-26T20:50:16;6.30;;;4.72;;
70588;SDS011;58152;49.202;18.744;2023-06-26T20:52:42;4.35;;;3.95;;
70588;SDS011;58152;49.202;18.744;2023-06-26T20:55:09;4.38;;;3.60;;
70588;SDS011;58152;49.202;18.744;2023-06-26T20:57:35;4.90;;;3.13;;
70588;SDS011;58152;49.202;18.744;2023-06-26T21:00:00;4.07;;;3.63;;